sensor_id;sensor_type;location;lat;lon;timestamp;pressure;altitude;pressure_sealevel;temperature;humidity
67545;BME280;54380;47.770;11.150;2022-11-20T00:01:37;94300.94;;;5.91;64.75
67545;BME280;54380;47.770;11.150;2022-11-20T00:04:05;94294.13;;;5.90;64.46
67545;BME280;54380;47.770;11.150;2022-11-20T00:06:33;94294.91;;;5.91;64.45
67545;BME280;54380;47.770;11.150;2022-11-20T00:09:13;94297.88;;;5.94;64.11
67545;BME280;54380;47.770;11.150;2022-11-20T00:11:45;94298.09;;;5.93;63.97
67545;BME280;54380;47.770;11.150;2022-11-20T00:14:21;94303.34;;;5.93;63.33
67545;BME280;54380;47.770;11.150;2022-11-20T00:17:06;94299.59;;;5.89;63.49
67545;BME280;54380;47.770;11.150;2022-11-20T00:19:33;94303.16;;;5.83;63.45
67545;BME280;54380;47.770;11.150;2022-11-20T00:22:00;94306.25;;;5.80;63.76
67545;BME280;54380;47.770;11.150;2022-11-20T00:24:29;94300.44;;;5.78;63.37
67545;BME280;54380;47.770;11.150;2022-11-20T00:26:56;94306.72;;;5.77;63.57
67545;BME280;54380;47.770;11.150;2022-11-20T00:29:24;94306.94;;;5.75;63.56
67545;BME280;54380;47.770;11.150;2022-11-20T00:31:50;94304.78;;;5.72;63.63
67545;BME280;54380;47.770;11.150;2022-11-20T00:34:26;94315.75;;;5.69;63.48
67545;BME280;54380;47.770;11.150;2022-11-20T00:36:56;94312.78;;;5.65;63.32
67545;BME280;54380;47.770;11.150;2022-11-20T00:39:37;94306.66;;;5.60;63.02
67545;BME280;54380;47.770;11.150;2022-11-20T00:42:03;94313.81;;;5.53;63.38
67545;BME280;54380;47.770;11.150;2022-11-20T00:44:30;94318.53;;;5.50;63.94
67545;BME280;54380;47.770;11.150;2022-11-20T00:46:57;94327.97;;;5.52;63.80
67545;BME280;54380;47.770;11.150;2022-11-20T00:49:26;94323.97;;;5.49;63.72
67545;BME280;54380;47.770;11.150;2022-11-20T00:51:53;94323.66;;;5.45;63.58
67545;BME280;54380;47.770;11.150;2022-11-20T00:54:23;94322.63;;;5.46;64.17
67545;BME280;54380;47.770;11.150;2022-11-20T00:56:52;94322.41;;;5.48;63.72
67545;BME280;54380;47.770;11.150;2022-11-20T00:59:19;94329.13;;;5.44;64.03
67545;BME280;54380;47.770;11.150;2022-11-20T01:01:46;94331.72;;;5.44;64.14
67545;BME280;54380;47.770;11.150;2022-11-20T01:04:13;94330.47;;;5.46;64.51
67545;BME280;54380;47.770;11.150;2022-11-20T01:06:43;94320.00;;;5.46;64.75
67545;BME280;54380;47.770;11.150;2022-11-20T01:09:11;94329.00;;;5.50;64.95
67545;BME280;54380;47.770;11.150;2022-11-20T01:11:39;94330.09;;;5.55;64.73
67545;BME280;54380;47.770;11.150;2022-11-20T01:14:07;94329.41;;;5.59;65.01
67545;BME280;54380;47.770;11.150;2022-11-20T01:16:35;94333.97;;;5.64;64.83
67545;BME280;54380;47.770;11.150;2022-11-20T01:19:03;94342.72;;;5.69;65.57
67545;BME280;54380;47.770;11.150;2022-11-20T01:21:31;94340.97;;;5.75;65.35
67545;BME280;54380;47.770;11.150;2022-11-20T01:24:02;94336.84;;;5.79;65.37
67545;BME280;54380;47.770;11.150;2022-11-20T01:26:30;94336.16;;;5.84;64.71
67545;BME280;54380;47.770;11.150;2022-11-20T01:29:02;94336.25;;;5.89;65.31
67545;BME280;54380;47.770;11.150;2022-11-20T01:31:43;94332.16;;;5.93;65.11
67545;BME280;54380;47.770;11.150;2022-11-20T01:34:23;94327.50;;;5.95;64.75
67545;BME280;54380;47.770;11.150;2022-11-20T01:36:58;94335.13;;;5.97;65.07
67545;BME280;54380;47.770;11.150;2022-11-20T01:42:18;94335.13;;;5.97;64.91
67545;BME280;54380;47.770;11.150;2022-11-20T01:47:45;94331.81;;;6.01;65.27
67545;BME280;54380;47.770;11.150;2022-11-20T01:50:26;94335.53;;;6.05;64.86
67545;BME280;54380;47.770;11.150;2022-11-20T01:53:00;94332.47;;;6.08;64.54
67545;BME280;54380;47.770;11.150;2022-11-20T01:55:29;94342.94;;;6.08;64.57
67545;BME280;54380;47.770;11.150;2022-11-20T01:57:59;94337.44;;;6.10;65.07
67545;BME280;54380;47.770;11.150;2022-11-20T02:00:27;94346.66;;;6.12;64.72
67545;BME280;54380;47.770;11.150;2022-11-20T02:02:54;94340.41;;;6.13;65.00
67545;BME280;54380;47.770;11.150;2022-11-20T02:05:23;94345.41;;;6.15;64.76
67545;BME280;54380;47.770;11.150;2022-11-20T02:07:58;94346.75;;;6.18;65.03
67545;BME280;54380;47.770;11.150;2022-11-20T02:10:25;94351.78;;;6.19;64.59
67545;BME280;54380;47.770;11.150;2022-11-20T02:12:54;94343.91;;;6.19;64.85
67545;BME280;54380;47.770;11.150;2022-11-20T02:15:42;94345.50;;;6.20;64.62
67545;BME280;54380;47.770;11.150;2022-11-20T02:18:10;94346.53;;;6.19;64.64
67545;BME280;54380;47.770;11.150;2022-11-20T02:20:38;94346.53;;;6.19;64.91
67545;BME280;54380;47.770;11.150;2022-11-20T02:23:08;94348.13;;;6.20;65.03
67545;BME280;54380;47.770;11.150;2022-11-20T02:25:40;94349.69;;;6.21;65.00
67545;BME280;54380;47.770;11.150;2022-11-20T02:28:17;94359.16;;;6.22;64.68
67545;BME280;54380;47.770;11.150;2022-11-20T02:30:44;94353.34;;;6.20;65.05
67545;BME280;54380;47.770;11.150;2022-11-20T02:33:12;94351.22;;;6.17;65.06
67545;BME280;54380;47.770;11.150;2022-11-20T02:35:40;94352.78;;;6.18;65.03
67545;BME280;54380;47.770;11.150;2022-11-20T02:38:07;94347.56;;;6.18;64.77
67545;BME280;54380;47.770;11.150;2022-11-20T02:40:35;94341.53;;;6.18;64.80
67545;BME280;54380;47.770;11.150;2022-11-20T02:43:07;94341.53;;;6.18;64.75
67545;BME280;54380;47.770;11.150;2022-11-20T02:45:35;94341.75;;;6.16;64.57
67545;BME280;54380;47.770;11.150;2022-11-20T02:48:02;94338.34;;;6.15;64.50
67545;BME280;54380;47.770;11.150;2022-11-20T02:50:31;94337.78;;;6.13;64.48
67545;BME280;54380;47.770;11.150;2022-11-20T02:52:58;94340.63;;;6.12;64.15
67545;BME280;54380;47.770;11.150;2022-11-20T02:55:39;94340.53;;;6.07;64.75
67545;BME280;54380;47.770;11.150;2022-11-20T02:58:07;94339.19;;;6.04;64.37
67545;BME280;54380;47.770;11.150;2022-11-20T03:00:35;94338.31;;;5.99;64.76
67545;BME280;54380;47.770;11.150;2022-11-20T03:03:02;94339.56;;;5.96;64.90
67545;BME280;54380;47.770;11.150;2022-11-20T03:05:30;94338.41;;;5.92;64.42
67545;BME280;54380;47.770;11.150;2022-11-20T03:07:58;94339.34;;;5.86;64.84
67545;BME280;54380;47.770;11.150;2022-11-20T03:10:28;94341.66;;;5.82;64.92
67545;BME280;54380;47.770;11.150;2022-11-20T03:12:55;94336.06;;;5.79;64.37
67545;BME280;54380;47.770;11.150;2022-11-20T03:18:06;94334.59;;;5.71;64.39
67545;BME280;54380;47.770;11.150;2022-11-20T03:20:32;94336.91;;;5.67;64.17
67545;BME280;54380;47.770;11.150;2022-11-20T03:23:00;94332.34;;;5.63;64.12
67545;BME280;54380;47.770;11.150;2022-11-20T03:25:27;94328.06;;;5.57;64.90
67545;BME280;54380;47.770;11.150;2022-11-20T03:27:54;94336.94;;;5.56;65.21
67545;BME280;54380;47.770;11.150;2022-11-20T03:30:20;94337.97;;;5.55;65.00
67545;BME280;54380;47.770;11.150;2022-11-20T03:32:54;94332.16;;;5.53;64.71
67545;BME280;54380;47.770;11.150;2022-11-20T03:35:38;94335.03;;;5.51;64.63
67545;BME280;54380;47.770;11.150;2022-11-20T03:38:18;94345.72;;;5.49;64.39
67545;BME280;54380;47.770;11.150;2022-11-20T03:40:45;94342.31;;;5.49;65.21
67545;BME280;54380;47.770;11.150;2022-11-20T03:43:12;94343.09;;;5.49;64.79
67545;BME280;54380;47.770;11.150;2022-11-20T03:45:39;94345.72;;;5.49;64.99
67545;BME280;54380;47.770;11.150;2022-11-20T03:48:07;94345.97;;;5.48;65.40
67545;BME280;54380;47.770;11.150;2022-11-20T03:50:43;94345.72;;;5.49;65.49
67545;BME280;54380;47.770;11.150;2022-11-20T03:53:10;94343.44;;;5.53;65.68
67545;BME280;54380;47.770;11.150;2022-11-20T03:55:37;94340.13;;;5.58;65.30
67545;BME280;54380;47.770;11.150;2022-11-20T03:58:03;94342.25;;;5.61;65.63
67545;BME280;54380;47.770;11.150;2022-11-20T04:00:32;94342.03;;;5.62;65.53
67545;BME280;54380;47.770;11.150;2022-11-20T04:02:59;94340.78;;;5.65;65.34
67545;BME280;54380;47.770;11.150;2022-11-20T04:05:26;94342.13;;;5.67;65.52
67545;BME280;54380;47.770;11.150;2022-11-20T04:07:54;94348.53;;;5.71;65.24
67545;BME280;54380;47.770;11.150;2022-11-20T04:10:21;94345.44;;;5.75;65.46
67545;BME280;54380;47.770;11.150;2022-11-20T04:12:47;94344.97;;;5.78;65.70
67545;BME280;54380;47.770;11.150;2022-11-20T04:15:14;94351.09;;;5.83;65.36
67545;BME280;54380;47.770;11.150;2022-11-20T04:17:41;94348.78;;;5.87;65.46
67545;BME280;54380;47.770;11.150;2022-11-20T04:20:10;94344.91;;;5.89;65.00
67545;BME280;54380;47.770;11.150;2022-11-20T04:22:36;94345.94;;;5.88;65.04
67545;BME280;54380;47.770;11.150;2022-11-20T04:25:05;94341.50;;;5.89;65.37
67545;BME280;54380;47.770;11.150;2022-11-20T04:27:32;94345.72;;;5.90;65.29
67545;BME280;54380;47.770;11.150;2022-11-20T04:29:59;94334.44;;;5.89;64.92
67545;BME280;54380;47.770;11.150;2022-11-20T04:32:28;94346.16;;;5.87;64.91
67545;BME280;54380;47.770;11.150;2022-11-20T04:34:55;94338.78;;;5.84;64.92
67545;BME280;54380;47.770;11.150;2022-11-20T04:37:22;94334.59;;;5.83;65.41
67545;BME280;54380;47.770;11.150;2022-11-20T04:39:50;94343.44;;;5.82;65.21
67545;BME280;54380;47.770;11.150;2022-11-20T04:42:18;94341.66;;;5.82;65.30
67545;BME280;54380;47.770;11.150;2022-11-20T04:44:57;94338.00;;;5.83;65.24
67545;BME280;54380;47.770;11.150;2022-11-20T04:47:23;94344.59;;;5.86;65.60
67545;BME280;54380;47.770;11.150;2022-11-20T04:49:51;94350.03;;;5.84;65.46
67545;BME280;54380;47.770;11.150;2022-11-20T04:52:18;94345.84;;;5.83;65.25
67545;BME280;54380;47.770;11.150;2022-11-20T04:54:47;94347.69;;;5.83;65.83
67545;BME280;54380;47.770;11.150;2022-11-20T04:57:37;94351.66;;;5.85;65.60
67545;BME280;54380;47.770;11.150;2022-11-20T05:00:05;94351.75;;;5.90;65.84
67545;BME280;54380;47.770;11.150;2022-11-20T05:02:32;94351.09;;;5.95;66.00
67545;BME280;54380;47.770;11.150;2022-11-20T05:05:00;94355.03;;;5.98;65.28
67545;BME280;54380;47.770;11.150;2022-11-20T05:07:27;94354.03;;;5.99;65.24
67545;BME280;54380;47.770;11.150;2022-11-20T05:09:54;94355.28;;;5.96;65.33
67545;BME280;54380;47.770;11.150;2022-11-20T05:12:21;94352.09;;;5.94;65.56
67545;BME280;54380;47.770;11.150;2022-11-20T05:14:49;94354.25;;;5.97;65.66
67545;BME280;54380;47.770;11.150;2022-11-20T05:17:16;94349.56;;;5.99;65.33
67545;BME280;54380;47.770;11.150;2022-11-20T05:19:42;94354.59;;;6.01;65.22
67545;BME280;54380;47.770;11.150;2022-11-20T05:22:09;94352.97;;;6.00;65.45
67545;BME280;54380;47.770;11.150;2022-11-20T05:24:36;94348.78;;;5.99;65.46
67545;BME280;54380;47.770;11.150;2022-11-20T05:27:10;94356.38;;;6.00;65.30
67545;BME280;54380;47.770;11.150;2022-11-20T05:29:37;94355.13;;;6.03;65.19
67545;BME280;54380;47.770;11.150;2022-11-20T05:35:02;94361.50;;;6.07;65.25
67545;BME280;54380;47.770;11.150;2022-11-20T05:37:28;94362.56;;;6.06;65.02
67545;BME280;54380;47.770;11.150;2022-11-20T05:39:56;94359.34;;;6.04;65.47
67545;BME280;54380;47.770;11.150;2022-11-20T05:42:29;94360.63;;;6.01;65.13
67545;BME280;54380;47.770;11.150;2022-11-20T05:44:56;94363.47;;;6.00;65.28
67545;BME280;54380;47.770;11.150;2022-11-20T05:47:23;94362.09;;;5.97;65.28
67545;BME280;54380;47.770;11.150;2022-11-20T05:49:50;94355.03;;;5.98;65.79
67545;BME280;54380;47.770;11.150;2022-11-20T05:55:03;94371.78;;;5.97;65.52
67545;BME280;54380;47.770;11.150;2022-11-20T05:57:30;94377.03;;;5.97;65.67
67545;BME280;54380;47.770;11.150;2022-11-20T05:59:57;94370.75;;;5.98;65.67
67545;BME280;54380;47.770;11.150;2022-11-20T06:02:26;94379.66;;;5.97;65.71
67545;BME280;54380;47.770;11.150;2022-11-20T06:04:57;94378.06;;;5.96;65.97
67545;BME280;54380;47.770;11.150;2022-11-20T06:07:31;94376.47;;;5.94;65.65
67545;BME280;54380;47.770;11.150;2022-11-20T06:10:08;94378.50;;;5.92;65.74
67545;BME280;54380;47.770;11.150;2022-11-20T06:12:48;94378.50;;;5.92;65.54
67545;BME280;54380;47.770;11.150;2022-11-20T06:15:15;94382.28;;;5.97;65.63
67545;BME280;54380;47.770;11.150;2022-11-20T06:17:42;94382.84;;;5.99;65.86
67545;BME280;54380;47.770;11.150;2022-11-20T06:20:10;94385.16;;;5.95;65.64
67545;BME280;54380;47.770;11.150;2022-11-20T06:22:39;94382.75;;;5.93;65.86
67545;BME280;54380;47.770;11.150;2022-11-20T06:25:13;94386.72;;;5.96;65.08
67545;BME280;54380;47.770;11.150;2022-11-20T06:27:40;94386.16;;;5.94;65.35
67545;BME280;54380;47.770;11.150;2022-11-20T06:30:08;94386.38;;;5.92;65.06
67545;BME280;54380;47.770;11.150;2022-11-20T06:32:39;94384.75;;;5.91;65.37
67545;BME280;54380;47.770;11.150;2022-11-20T06:35:07;94385.00;;;5.90;65.08
67545;BME280;54380;47.770;11.150;2022-11-20T06:37:34;94389.13;;;5.86;65.28
67545;BME280;54380;47.770;11.150;2022-11-20T06:40:01;94393.00;;;5.83;65.12
67545;BME280;54380;47.770;11.150;2022-11-20T06:42:31;94393.22;;;5.82;65.41
67545;BME280;54380;47.770;11.150;2022-11-20T06:44:59;94390.59;;;5.82;65.27
67545;BME280;54380;47.770;11.150;2022-11-20T06:47:27;94394.56;;;5.84;65.71
67545;BME280;54380;47.770;11.150;2022-11-20T06:49:56;94400.06;;;5.83;65.42
67545;BME280;54380;47.770;11.150;2022-11-20T06:52:22;94390.59;;;5.82;65.32
67545;BME280;54380;47.770;11.150;2022-11-20T06:54:49;94401.06;;;5.82;65.29
67545;BME280;54380;47.770;11.150;2022-11-20T06:57:16;94401.63;;;5.84;65.62
67545;BME280;54380;47.770;11.150;2022-11-20T06:59:48;94398.00;;;5.85;65.26
67545;BME280;54380;47.770;11.150;2022-11-20T07:02:15;94409.28;;;5.85;65.05
67545;BME280;54380;47.770;11.150;2022-11-20T07:04:42;94399.81;;;5.84;65.27
67545;BME280;54380;47.770;11.150;2022-11-20T07:07:09;94396.75;;;5.87;65.55
67545;BME280;54380;47.770;11.150;2022-11-20T07:09:36;94404.72;;;5.92;65.68
67545;BME280;54380;47.770;11.150;2022-11-20T07:12:03;94402.09;;;5.92;65.38
67545;BME280;54380;47.770;11.150;2022-11-20T07:14:31;94413.34;;;5.93;64.81
67545;BME280;54380;47.770;11.150;2022-11-20T07:17:00;94412.34;;;5.94;64.52
67545;BME280;54380;47.770;11.150;2022-11-20T07:19:26;94410.53;;;5.94;64.51
67545;BME280;54380;47.770;11.150;2022-11-20T07:22:07;94414.03;;;6.00;64.75
67545;BME280;54380;47.770;11.150;2022-11-20T07:24:34;94414.94;;;6.06;64.67
67545;BME280;54380;47.770;11.150;2022-11-20T07:27:10;94411.59;;;6.10;64.70
67545;BME280;54380;47.770;11.150;2022-11-20T07:29:36;94413.22;;;6.11;64.72
67545;BME280;54380;47.770;11.150;2022-11-20T07:32:06;94416.16;;;6.15;64.59
67545;BME280;54380;47.770;11.150;2022-11-20T07:34:33;94415.22;;;6.21;64.91
67545;BME280;54380;47.770;11.150;2022-11-20T07:37:08;94421.38;;;6.27;64.59
67545;BME280;54380;47.770;11.150;2022-11-20T07:39:36;94414.03;;;6.29;64.39
67545;BME280;54380;47.770;11.150;2022-11-20T07:42:03;94417.00;;;6.32;64.58
67545;BME280;54380;47.770;11.150;2022-11-20T07:44:30;94422.00;;;6.34;64.25
67545;BME280;54380;47.770;11.150;2022-11-20T07:46:57;94419.72;;;6.37;64.67
67545;BME280;54380;47.770;11.150;2022-11-20T07:52:08;94412.59;;;6.50;64.22
67545;BME280;54380;47.770;11.150;2022-11-20T07:54:38;94408.22;;;6.55;64.14
67545;BME280;54380;47.770;11.150;2022-11-20T07:57:05;94409.91;;;6.62;64.36
67545;BME280;54380;47.770;11.150;2022-11-20T07:59:33;94407.22;;;6.73;64.31
67545;BME280;54380;47.770;11.150;2022-11-20T08:02:09;94412.09;;;6.98;63.69
67545;BME280;54380;47.770;11.150;2022-11-20T08:04:37;94420.91;;;7.09;63.84
67545;BME280;54380;47.770;11.150;2022-11-20T08:07:04;94418.19;;;7.21;63.61
67545;BME280;54380;47.770;11.150;2022-11-20T08:09:32;94427.47;;;7.45;63.25
67545;BME280;54380;47.770;11.150;2022-11-20T08:12:16;94432.34;;;7.76;62.48
67545;BME280;54380;47.770;11.150;2022-11-20T08:15:03;94428.91;;;7.97;60.11
67545;BME280;54380;47.770;11.150;2022-11-20T08:17:38;94427.03;;;7.93;59.94
67545;BME280;54380;47.770;11.150;2022-11-20T08:20:06;94421.72;;;7.87;59.71
67545;BME280;54380;47.770;11.150;2022-11-20T08:22:32;94428.19;;;7.80;59.65
67545;BME280;54380;47.770;11.150;2022-11-20T08:30:45;94429.50;;;7.60;59.34
67545;BME280;54380;47.770;11.150;2022-11-20T08:33:12;94422.97;;;7.63;59.02
67545;BME280;54380;47.770;11.150;2022-11-20T08:35:42;94429.78;;;7.81;59.21
67545;BME280;54380;47.770;11.150;2022-11-20T08:38:17;94424.41;;;8.14;58.73
67545;BME280;54380;47.770;11.150;2022-11-20T08:40:46;94429.31;;;8.55;58.24
67545;BME280;54380;47.770;11.150;2022-11-20T08:43:33;94430.41;;;8.86;57.09
67545;BME280;54380;47.770;11.150;2022-11-20T08:51:29;94415.16;;;8.56;56.73
67545;BME280;54380;47.770;11.150;2022-11-20T08:53:56;94422.50;;;8.54;57.11
67545;BME280;54380;47.770;11.150;2022-11-20T08:56:26;94427.47;;;8.55;55.58
67545;BME280;54380;47.770;11.150;2022-11-20T08:58:53;94421.81;;;8.69;56.15
67545;BME280;54380;47.770;11.150;2022-11-20T09:01:41;94414.03;;;8.79;56.50
67545;BME280;54380;47.770;11.150;2022-11-20T09:04:08;94415.34;;;9.09;56.54
67545;BME280;54380;47.770;11.150;2022-11-20T09:06:36;94416.31;;;9.40;55.50
67545;BME280;54380;47.770;11.150;2022-11-20T09:09:03;94411.00;;;9.72;54.31
67545;BME280;54380;47.770;11.150;2022-11-20T09:11:32;94402.09;;;9.88;53.22
67545;BME280;54380;47.770;11.150;2022-11-20T09:14:00;94401.03;;;9.89;53.71
67545;BME280;54380;47.770;11.150;2022-11-20T09:16:30;94415.03;;;9.85;53.66
67545;BME280;54380;47.770;11.150;2022-11-20T09:18:57;94402.03;;;9.73;53.60
67545;BME280;54380;47.770;11.150;2022-11-20T09:21:45;94415.97;;;9.68;54.35
67545;BME280;54380;47.770;11.150;2022-11-20T09:24:12;94403.91;;;9.78;53.57
67545;BME280;54380;47.770;11.150;2022-11-20T09:26:41;94412.69;;;9.99;53.34
67545;BME280;54380;47.770;11.150;2022-11-20T09:29:08;94396.22;;;10.29;53.04
67545;BME280;54380;47.770;11.150;2022-11-20T09:31:35;94408.66;;;10.39;52.49
67545;BME280;54380;47.770;11.150;2022-11-20T09:34:03;94395.50;;;10.59;52.18
67545;BME280;54380;47.770;11.150;2022-11-20T09:36:29;94398.66;;;10.71;51.46
67545;BME280;54380;47.770;11.150;2022-11-20T09:39:01;94400.78;;;10.95;51.12
67545;BME280;54380;47.770;11.150;2022-11-20T09:41:47;94396.59;;;11.14;50.71
67545;BME280;54380;47.770;11.150;2022-11-20T09:44:25;94386.25;;;11.33;49.85
67545;BME280;54380;47.770;11.150;2022-11-20T09:46:57;94386.50;;;11.47;50.18
67545;BME280;54380;47.770;11.150;2022-11-20T09:49:28;94383.59;;;11.54;49.80
67545;BME280;54380;47.770;11.150;2022-11-20T09:52:01;94379.59;;;11.67;50.25
67545;BME280;54380;47.770;11.150;2022-11-20T09:54:36;94386.69;;;11.71;49.34
67545;BME280;54380;47.770;11.150;2022-11-20T09:57:07;94376.91;;;11.77;49.84
67545;BME280;54380;47.770;11.150;2022-11-20T09:59:37;94372.91;;;11.90;49.39
67545;BME280;54380;47.770;11.150;2022-11-20T10:02:08;94379.03;;;11.80;49.23
67545;BME280;54380;47.770;11.150;2022-11-20T10:04:38;94369.47;;;11.94;49.42
67545;BME280;54380;47.770;11.150;2022-11-20T10:07:12;94368.09;;;12.12;49.73
67545;BME280;54380;47.770;11.150;2022-11-20T10:10:01;94357.09;;;12.34;48.66
67545;BME280;54380;47.770;11.150;2022-11-20T10:12:31;94364.44;;;12.47;47.17
67545;BME280;54380;47.770;11.150;2022-11-20T10:15:11;94358.03;;;12.59;47.05
67545;BME280;54380;47.770;11.150;2022-11-20T10:17:51;94357.63;;;12.76;46.94
67545;BME280;54380;47.770;11.150;2022-11-20T10:20:19;94360.22;;;12.86;47.63
67545;BME280;54380;47.770;11.150;2022-11-20T10:22:55;94357.44;;;13.01;43.96
67545;BME280;54380;47.770;11.150;2022-11-20T10:25:32;94356.72;;;12.95;45.82
67545;BME280;54380;47.770;11.150;2022-11-20T10:28:07;94357.13;;;13.08;46.20
67545;BME280;54380;47.770;11.150;2022-11-20T10:30:37;94348.13;;;13.09;43.23
67545;BME280;54380;47.770;11.150;2022-11-20T10:33:10;94369.13;;;12.95;43.08
67545;BME280;54380;47.770;11.150;2022-11-20T10:35:40;94354.41;;;12.84;44.05
67545;BME280;54380;47.770;11.150;2022-11-20T10:38:09;94352.03;;;12.82;41.59
67545;BME280;54380;47.770;11.150;2022-11-20T10:40:39;94351.91;;;12.63;42.96
67545;BME280;54380;47.770;11.150;2022-11-20T10:43:08;94352.19;;;12.62;43.22
67545;BME280;54380;47.770;11.150;2022-11-20T10:45:41;94347.09;;;12.70;44.69
67545;BME280;54380;47.770;11.150;2022-11-20T10:48:15;94339.88;;;12.76;44.18
67545;BME280;54380;47.770;11.150;2022-11-20T10:53:35;94350.06;;;12.64;45.24
67545;BME280;54380;47.770;11.150;2022-11-20T10:56:10;94349.56;;;12.57;44.39
67545;BME280;54380;47.770;11.150;2022-11-20T10:58:44;94354.88;;;12.57;44.75
67545;BME280;54380;47.770;11.150;2022-11-20T11:01:13;94357.44;;;12.22;44.61
67545;BME280;54380;47.770;11.150;2022-11-20T11:03:40;94361.31;;;11.80;45.45
67545;BME280;54380;47.770;11.150;2022-11-20T11:06:10;94355.06;;;11.51;46.42
67545;BME280;54380;47.770;11.150;2022-11-20T11:08:39;94357.47;;;11.21;46.88
67545;BME280;54380;47.770;11.150;2022-11-20T11:11:10;94350.59;;;11.36;47.61
67545;BME280;54380;47.770;11.150;2022-11-20T11:13:41;94356.28;;;11.74;47.78
67545;BME280;54380;47.770;11.150;2022-11-20T11:16:16;94351.16;;;12.08;46.44
67545;BME280;54380;47.770;11.150;2022-11-20T11:18:45;94350.25;;;12.33;46.21
67545;BME280;54380;47.770;11.150;2022-11-20T11:21:12;94353.28;;;12.50;46.37
67545;BME280;54380;47.770;11.150;2022-11-20T11:23:40;94338.53;;;12.79;44.44
67545;BME280;54380;47.770;11.150;2022-11-20T11:26:18;94330.66;;;13.03;43.06
67545;BME280;54380;47.770;11.150;2022-11-20T11:28:52;94320.97;;;13.22;42.85
67545;BME280;54380;47.770;11.150;2022-11-20T11:31:21;94324.28;;;13.62;44.39
67545;BME280;54380;47.770;11.150;2022-11-20T11:33:48;94318.50;;;13.79;43.01
67545;BME280;54380;47.770;11.150;2022-11-20T11:36:16;94320.28;;;13.41;42.78
67545;BME280;54380;47.770;11.150;2022-11-20T11:38:44;94328.97;;;13.17;44.08
67545;BME280;54380;47.770;11.150;2022-11-20T11:41:12;94315.25;;;13.10;44.19
67545;BME280;54380;47.770;11.150;2022-11-20T11:43:49;94311.38;;;12.97;44.11
67545;BME280;54380;47.770;11.150;2022-11-20T11:46:35;94296.44;;;12.82;44.69
67545;BME280;54380;47.770;11.150;2022-11-20T11:49:13;94302.06;;;12.70;44.92
67545;BME280;54380;47.770;11.150;2022-11-20T11:51:41;94289.41;;;12.96;45.41
67545;BME280;54380;47.770;11.150;2022-11-20T11:54:14;94294.50;;;13.70;44.51
67545;BME280;54380;47.770;11.150;2022-11-20T11:56:43;94285.00;;;14.45;42.42
67545;BME280;54380;47.770;11.150;2022-11-20T11:59:12;94286.91;;;15.24;41.13
67545;BME280;54380;47.770;11.150;2022-11-20T12:01:43;94285.47;;;15.87;40.32
67545;BME280;54380;47.770;11.150;2022-11-20T12:04:14;94275.47;;;16.20;38.64
67545;BME280;54380;47.770;11.150;2022-11-20T12:06:44;94274.88;;;16.23;38.57
67545;BME280;54380;47.770;11.150;2022-11-20T12:09:12;94278.50;;;16.27;38.27
67545;BME280;54380;47.770;11.150;2022-11-20T12:11:39;94274.97;;;16.18;38.03
67545;BME280;54380;47.770;11.150;2022-11-20T12:14:13;94280.56;;;15.80;37.97
67545;BME280;54380;47.770;11.150;2022-11-20T12:16:41;94280.97;;;15.73;37.83
67545;BME280;54380;47.770;11.150;2022-11-20T12:19:08;94285.28;;;15.97;38.11
67545;BME280;54380;47.770;11.150;2022-11-20T12:21:40;94279.97;;;16.33;37.63
67545;BME280;54380;47.770;11.150;2022-11-20T12:24:12;94280.53;;;16.44;36.77
67545;BME280;54380;47.770;11.150;2022-11-20T12:26:50;94262.50;;;16.41;36.76
67545;BME280;54380;47.770;11.150;2022-11-20T12:29:25;94275.66;;;16.23;36.66
67545;BME280;54380;47.770;11.150;2022-11-20T12:31:59;94277.00;;;15.85;37.01
67545;BME280;54380;47.770;11.150;2022-11-20T12:34:43;94276.13;;;15.75;37.63
67545;BME280;54380;47.770;11.150;2022-11-20T12:37:13;94279.75;;;15.79;37.62
67545;BME280;54380;47.770;11.150;2022-11-20T12:39:45;94277.22;;;15.88;37.99
67545;BME280;54380;47.770;11.150;2022-11-20T12:42:21;94268.84;;;15.81;38.01
67545;BME280;54380;47.770;11.150;2022-11-20T12:45:17;94276.47;;;16.10;38.58
67545;BME280;54380;47.770;11.150;2022-11-20T12:48:09;94269.72;;;16.27;36.79
67545;BME280;54380;47.770;11.150;2022-11-20T12:50:44;94279.47;;;15.81;37.03
67545;BME280;54380;47.770;11.150;2022-11-20T12:53:36;94268.31;;;15.24;38.07
67545;BME280;54380;47.770;11.150;2022-11-20T12:56:17;94269.91;;;14.78;38.48
67545;BME280;54380;47.770;11.150;2022-11-20T12:58:49;94266.22;;;14.22;39.06
67545;BME280;54380;47.770;11.150;2022-11-20T13:01:20;94263.06;;;13.82;39.71
67545;BME280;54380;47.770;11.150;2022-11-20T13:04:11;94261.44;;;13.38;40.37
67545;BME280;54380;47.770;11.150;2022-11-20T13:06:38;94261.06;;;13.21;41.12
67545;BME280;54380;47.770;11.150;2022-11-20T13:09:08;94251.97;;;13.03;41.61
67545;BME280;54380;47.770;11.150;2022-11-20T13:11:37;94249.97;;;12.90;42.23
67545;BME280;54380;47.770;11.150;2022-11-20T13:14:12;94250.72;;;12.66;43.01
67545;BME280;54380;47.770;11.150;2022-11-20T13:16:46;94244.59;;;12.42;43.67
67545;BME280;54380;47.770;11.150;2022-11-20T13:19:15;94249.25;;;12.16;44.35
67545;BME280;54380;47.770;11.150;2022-11-20T13:21:43;94243.09;;;11.91;44.55
67545;BME280;54380;47.770;11.150;2022-11-20T13:24:25;94240.72;;;11.79;45.13
67545;BME280;54380;47.770;11.150;2022-11-20T13:27:00;94246.38;;;11.62;45.68
67545;BME280;54380;47.770;11.150;2022-11-20T13:29:27;94239.25;;;11.53;45.64
67545;BME280;54380;47.770;11.150;2022-11-20T13:32:02;94241.47;;;11.35;45.65
67545;BME280;54380;47.770;11.150;2022-11-20T13:34:34;94243.84;;;11.27;46.54
67545;BME280;54380;47.770;11.150;2022-11-20T13:37:03;94235.47;;;11.09;46.74
67545;BME280;54380;47.770;11.150;2022-11-20T13:39:30;94229.97;;;10.95;46.69
67545;BME280;54380;47.770;11.150;2022-11-20T13:41:58;94239.22;;;10.88;47.39
67545;BME280;54380;47.770;11.150;2022-11-20T13:44:26;94232.38;;;10.76;47.67
67545;BME280;54380;47.770;11.150;2022-11-20T13:46:54;94236.63;;;10.67;47.54